Time;durP1;ratioP1;P1;durP2;ratioP2;P2;SDS_P1;SDS_P2;PMS_P1;PMS_P2;Temp;Humidity;BMP_temperature;BMP_pressure;BME280_temperature;BME280_humidity;BME280_pressure;Samples;Min_cycle;Max_cycle;Signal;HPM_P1;HPM_P2
2023/01/12 00:01:06;;;;;;;;;;;10.50;90.30;;;9.32;75.15;100068.69;6149364;23;19931;-78
2023/01/12 00:03:33;;;;;;;;;;;10.60;90.50;;;9.31;74.88;100056.38;6147759;23;20023;-77
2023/01/12 00:06:06;;;;;;;;;;;10.50;90.40;;;9.24;75.52;100055.59;6147775;23;19922;-78
2023/01/12 00:08:33;;;;;;;;;;;10.50;90.70;;;9.29;75.56;100058.44;6147789;23;19932;-77
2023/01/12 00:11:00;;;;;;;;;;;10.50;90.70;;;9.31;75.35;100060.88;6147742;23;19927;-77
2023/01/12 00:13:28;;;;;;;;;;;10.50;90.60;;;9.27;75.35;100057.81;6147762;23;19943;-78
2023/01/12 00:18:41;;;;;;;;;;;10.50;90.80;;;9.28;75.63;100054.97;6147631;23;19995;-77
2023/01/12 00:21:09;;;;;;;;;;;10.50;90.90;;;9.33;75.57;100037.56;6146345;23;19924;-78
2023/01/12 00:23:36;;;;;;;;;;;10.50;90.90;;;9.38;75.46;100046.53;6148612;23;20323;-77
2023/01/12 00:26:05;;;;;;;;;;;10.60;90.90;;;9.26;75.53;100033.06;6147556;23;20270;-78
2023/01/12 00:28:32;;;;;;;;;;;10.50;90.90;;;9.30;75.92;100038.78;6148056;23;20306;-77
2023/01/12 00:31:00;;;;;;;;;;;10.50;91.00;;;9.27;75.92;100034.72;6145880;23;20007;-77
2023/01/12 00:33:27;;;;;;;;;;;10.50;91.30;;;9.31;76.36;100037.75;6149746;23;19927;-77
2023/01/12 00:35:54;;;;;;;;;;;10.50;91.60;;;9.18;76.47;100046.63;6150898;23;19931;-77
2023/01/12 00:38:25;;;;;;;;;;;10.40;91.50;;;9.20;76.71;100041.09;6148902;23;19979;-78
2023/01/12 00:40:52;;;;;;;;;;;10.50;91.70;;;9.24;76.75;100039.63;6149985;23;19957;-77
2023/01/12 00:46:04;;;;;;;;;;;10.40;91.70;;;9.32;76.57;100035.91;6149731;23;19975;-77
2023/01/12 00:48:31;;;;;;;;;;;10.40;91.80;;;9.31;76.37;100037.75;6150435;23;19971;-78
2023/01/12 00:50:58;;;;;;;;;;;10.50;91.60;;;9.32;76.64;100039.41;6148124;23;20355;-77
2023/01/12 00:53:26;;;;;;;;;;;10.50;91.90;;;9.32;76.54;100022.59;6148111;23;19936;-77
2023/01/12 00:55:53;;;;;;;;;;;10.40;91.80;;;9.33;76.49;100032.22;6150099;23;19920;-78
2023/01/12 00:58:20;;;;;;;;;;;10.40;91.90;;;9.36;76.67;100024.63;6150626;23;19921;-77
2023/01/12 01:00:47;;;;;;;;;;;10.50;92.00;;;9.37;76.59;100033.41;6150227;23;20342;-77
2023/01/12 01:03:13;;;;;;;;;;;10.50;91.90;;;9.37;76.65;100033.41;6149550;23;19931;-78
2023/01/12 01:05:40;;;;;;;;;;;10.50;92.00;;;9.40;76.61;100027.66;6149045;23;20280;-77
2023/01/12 01:08:07;;;;;;;;;;;10.50;91.80;;;9.36;76.83;100026.47;6150055;23;20332;-77
2023/01/12 01:10:36;;;;;;;;;;;10.50;91.90;;;9.33;77.19;100034.91;6150533;23;19957;-78
2023/01/12 01:13:03;;;;;;;;;;;10.50;92.20;;;9.31;77.60;100031.63;6150433;23;20306;-77
2023/01/12 01:15:30;;;;;;;;;;;10.50;92.60;;;9.27;77.74;100032.06;6148925;23;19927;-78
2023/01/12 01:17:57;;;;;;;;;;;10.50;92.70;;;9.26;77.97;100038.38;6148347;23;19991;-78
2023/01/12 01:20:23;;;;;;;;;;;10.40;92.60;;;9.29;77.92;100035.31;6152215;23;19924;-78
2023/01/12 01:22:50;;;;;;;;;;;10.50;92.80;;;9.27;78.16;100040.03;6151749;23;19921;-78
2023/01/12 01:25:17;;;;;;;;;;;10.40;93.00;;;9.29;78.46;100037.97;6151898;23;19920;-77
2023/01/12 01:27:46;;;;;;;;;;;10.40;93.10;;;9.34;77.99;100024.03;6151561;23;19925;-78
2023/01/12 01:30:13;;;;;;;;;;;10.50;93.00;;;9.36;78.02;100043.25;6152279;23;20022;-78
2023/01/12 01:32:40;;;;;;;;;;;10.50;92.80;;;9.38;77.97;100037.72;6151207;23;20410;-78
2023/01/12 01:35:07;;;;;;;;;;;10.50;92.90;;;9.41;77.92;100045.25;6151297;23;20407;-78
2023/01/12 01:37:34;;;;;;;;;;;10.60;93.00;;;9.39;77.75;100023.38;6151895;23;19928;-78
2023/01/12 01:40:01;;;;;;;;;;;10.50;92.90;;;9.37;78.02;100028.94;6152770;23;19963;-78
2023/01/12 01:42:28;;;;;;;;;;;10.50;92.90;;;9.37;77.94;100031.59;6152178;23;19928;-78
2023/01/12 01:44:59;;;;;;;;;;;10.50;92.80;;;9.39;77.90;100034.03;6151177;23;19920;-78
2023/01/12 01:47:30;;;;;;;;;;;10.60;92.70;;;9.37;78.19;100023.59;6151980;23;20372;-78
2023/01/12 01:49:59;;;;;;;;;;;10.50;92.90;;;9.42;77.83;100025.59;6149708;23;20315;-78
2023/01/12 01:52:28;;;;;;;;;;;10.50;92.80;;;9.39;77.97;100020.72;6152182;23;19975;-78
2023/01/12 01:54:59;;;;;;;;;;;10.50;92.90;;;9.39;77.96;100015.41;6151866;23;20007;-77
2023/01/12 01:57:30;;;;;;;;;;;10.60;92.80;;;9.38;78.07;100013.78;6150039;23;19921;-78
2023/01/12 01:59:59;;;;;;;;;;;10.60;92.80;;;9.31;78.18;100008.47;6151317;23;19974;-78
2023/01/12 02:02:27;;;;;;;;;;;10.50;93.00;;;9.28;78.09;100003.59;6149232;23;19921;-78
2023/01/12 02:04:55;;;;;;;;;;;10.50;92.90;;;9.32;78.27;100004.81;6148925;23;19921;-78
2023/01/12 02:07:22;;;;;;;;;;;10.50;93.00;;;9.33;78.28;99985.16;6148804;23;19923;-78
2023/01/12 02:09:49;;;;;;;;;;;10.50;93.20;;;9.38;78.23;99992.47;6149083;23;19920;-78
2023/01/12 02:17:55;;;;;;;;;;;10.50;93.00;;;9.42;77.95;99975.03;6149471;23;19923;-78
2023/01/12 02:20:51;;;;;;;;;;;10.50;92.90;;;9.41;77.95;99970.75;6149230;23;19920;-78
2023/01/12 02:23:47;;;;;;;;;;;10.60;92.90;;;9.47;77.86;99977.88;6133466;23;19995;-78
2023/01/12 02:26:53;;;;;;;;;;;10.60;92.80;;;9.46;77.41;99968.25;6148995;23;20086;-78
2023/01/12 02:30:21;;;;;;;;;;;10.60;92.60;;;9.43;77.71;99963.38;6148606;23;19921;-78
2023/01/12 02:32:56;;;;;;;;;;;10.60;92.70;;;9.47;77.48;99951.28;6088424;23;19921;-78
2023/01/12 02:35:27;;;;;;;;;;;10.60;92.60;;;9.49;77.31;99951.84;6150326;23;20045;-78
2023/01/12 02:38:00;;;;;;;;;;;10.60;92.40;;;9.50;77.43;99950.81;6150989;23;19921;-78
2023/01/12 02:40:34;;;;;;;;;;;10.60;92.40;;;9.48;77.35;99943.06;6150132;23;19916;-78
2023/01/12 02:43:06;;;;;;;;;;;10.70;92.40;;;9.47;77.21;99945.94;6152184;23;19921;-78
2023/01/12 02:45:41;;;;;;;;;;;10.60;92.20;;;9.48;77.25;99939.59;6151145;23;19923;-78
2023/01/12 02:48:15;;;;;;;;;;;10.60;92.40;;;9.44;77.64;99943.72;6151355;23;19916;-78
2023/01/12 02:50:47;;;;;;;;;;;10.60;92.40;;;9.48;77.62;99934.25;6151886;23;20403;-78
2023/01/12 02:53:17;;;;;;;;;;;10.60;92.60;;;9.46;77.63;99929.13;6151136;23;20015;-78
2023/01/12 02:55:46;;;;;;;;;;;10.60;92.60;;;9.48;77.72;99926.28;6150515;23;20370;-78
2023/01/12 02:58:14;;;;;;;;;;;10.60;92.60;;;9.49;77.40;99935.88;6151616;23;19916;-78
2023/01/12 03:00:44;;;;;;;;;;;10.60;92.60;;;9.44;77.73;99917.91;6151152;23;19920;-78
2023/01/12 03:03:12;;;;;;;;;;;10.60;92.80;;;9.47;77.94;99916.66;6151229;23;19920;-78
2023/01/12 03:05:40;;;;;;;;;;;10.60;92.90;;;9.42;78.01;99917.31;6151182;23;19920;-78
2023/01/12 03:08:11;;;;;;;;;;;10.60;93.00;;;9.42;78.26;99908.50;6150830;23;19920;-78
2023/01/12 03:11:08;;;;;;;;;;;10.60;93.00;;;9.44;78.03;99906.44;6150793;23;20312;-78
2023/01/12 03:13:37;;;;;;;;;;;10.60;93.00;;;9.48;78.14;99904.97;6115110;23;20286;-78
2023/01/12 03:16:06;;;;;;;;;;;10.60;93.00;;;9.49;77.66;99890.63;6150654;23;19947;-77
2023/01/12 03:18:37;;;;;;;;;;;10.60;92.80;;;9.43;77.92;99883.53;6151013;23;19916;-78
2023/01/12 03:21:08;;;;;;;;;;;10.60;92.90;;;9.42;78.02;99877.41;6149482;23;20000;-77
2023/01/12 03:23:39;;;;;;;;;;;10.60;92.90;;;9.42;78.24;99868.56;6151173;23;19940;-78
2023/01/12 03:26:09;;;;;;;;;;;10.60;93.00;;;9.34;78.29;99882.97;6150395;23;20340;-78
2023/01/12 03:28:37;;;;;;;;;;;10.50;93.40;;;9.36;78.69;99874.78;6150352;23;19928;-78
2023/01/12 03:31:08;;;;;;;;;;;10.50;93.60;;;9.35;78.92;99865.97;6151338;23;20414;-78
2023/01/12 03:33:37;;;;;;;;;;;10.50;93.60;;;9.35;78.86;99867.81;6149347;23;19947;-78
2023/01/12 03:36:13;;;;;;;;;;;10.50;93.50;;;9.32;79.02;99865.59;6149948;23;20002;-78
2023/01/12 03:38:46;;;;;;;;;;;10.50;93.60;;;9.37;78.85;99863.09;6149103;23;20841;-78
2023/01/12 03:41:19;;;;;;;;;;;10.60;93.60;;;9.34;78.96;99855.56;6150793;23;20012;-78
2023/01/12 03:43:50;;;;;;;;;;;10.50;93.70;;;9.34;79.18;99853.72;6150650;23;19921;-78
2023/01/12 03:46:22;;;;;;;;;;;10.50;93.60;;;9.33;79.00;99861.91;6149043;23;19920;-78
2023/01/12 03:48:53;;;;;;;;;;;10.50;93.60;;;9.33;78.80;99844.09;6150569;23;19995;-78
2023/01/12 03:51:22;;;;;;;;;;;10.50;93.60;;;9.28;78.86;99844.75;6150901;23;19920;-78
2023/01/12 03:53:51;;;;;;;;;;;10.50;93.60;;;9.30;79.18;99847.19;6150770;23;19917;-78
2023/01/12 03:56:20;;;;;;;;;;;10.50;93.80;;;9.35;79.12;99843.88;6149579;23;19920;-78
2023/01/12 03:58:47;;;;;;;;;;;10.50;94.00;;;9.32;79.00;99836.31;6150935;23;20441;-78
2023/01/12 04:01:14;;;;;;;;;;;10.50;93.80;;;9.31;79.37;99835.50;6151102;23;20586;-77
2023/01/12 04:03:41;;;;;;;;;;;10.50;93.80;;;9.33;78.80;99828.13;6150403;23;19928;-78
2023/01/12 04:06:10;;;;;;;;;;;10.50;93.60;;;9.34;79.00;99826.28;6150722;23;19916;-78
2023/01/12 04:08:37;;;;;;;;;;;10.50;93.80;;;9.31;79.10;99827.53;6149784;23;19924;-78
2023/01/12 04:12:08;;;;;;;;;;;10.50;93.70;;;9.34;79.00;99826.28;6149797;23;19923;-78
2023/01/12 04:13:51;;;;;;;;;;;10.50;93.80;;;9.37;79.07;99813.38;6150445;23;20552;-78
2023/01/12 04:16:18;;;;;;;;;;;10.50;94.00;;;9.39;78.90;99807.81;6148113;23;19920;-78
2023/01/12 04:18:45;;;;;;;;;;;10.50;93.80;;;9.39;79.01;99821.94;6147872;23;19925;-78
2023/01/12 04:23:54;;;;;;;;;;;10.50;93.90;;;9.45;79.21;99813.06;6147354;23;19920;-78
2023/01/12 04:26:21;;;;;;;;;;;10.60;93.60;;;9.42;79.05;99810.88;6147569;23;20244;-78
2023/01/12 04:28:48;;;;;;;;;;;10.60;93.50;;;9.43;78.78;99801.84;6149383;23;19920;-78
2023/01/12 04:31:16;;;;;;;;;;;10.60;93.40;;;9.36;78.81;99798.41;6147751;23;20266;-78
2023/01/12 04:33:43;;;;;;;;;;;10.60;93.40;;;9.36;79.41;99805.59;6147769;23;19925;-78
2023/01/12 04:36:11;;;;;;;;;;;10.60;93.60;;;9.37;79.43;99799.22;6147442;23;19924;-78
2023/01/12 04:38:40;;;;;;;;;;;10.60;93.60;;;9.32;79.24;99794.59;6148020;23;19920;-78
2023/01/12 04:41:07;;;;;;;;;;;10.50;93.60;;;9.31;79.35;99800.09;6147964;23;19951;-78
2023/01/12 04:43:35;;;;;;;;;;;10.60;93.80;;;9.32;79.70;99791.09;6149826;23;19931;-78
2023/01/12 04:46:05;;;;;;;;;;;10.50;94.00;;;9.36;79.63;99787.75;6150415;23;19920;-78
2023/01/12 04:48:32;;;;;;;;;;;10.50;94.00;;;9.36;79.29;99771.81;6150665;23;19920;-78
2023/01/12 04:51:00;;;;;;;;;;;10.50;94.00;;;9.35;79.59;99770.19;6150511;23;19921;-77
2023/01/12 04:53:27;;;;;;;;;;;10.50;94.20;;;9.34;79.94;99760.56;6150834;23;19921;-86
2023/01/12 04:55:56;;;;;;;;;;;10.50;94.40;;;9.36;79.80;99755.84;6152249;23;19927;-87
2023/01/12 04:58:25;;;;;;;;;;;10.50;94.50;;;9.38;79.61;99739.66;6152158;23;19920;-87
2023/01/12 05:00:52;;;;;;;;;;;10.50;94.40;;;9.36;80.01;99739.88;6150508;23;19975;-87
2023/01/12 05:03:19;;;;;;;;;;;10.50;94.60;;;9.35;79.93;99745.41;6152320;23;19947;-84
2023/01/12 05:05:46;;;;;;;;;;;10.50;94.40;;;9.33;79.98;99745.66;6152512;23;20430;-86
2023/01/12 05:11:01;;;;;;;;;;;10.50;94.60;;;9.33;80.31;99742.19;6152329;23;19921;-83
2023/01/12 05:13:29;;;;;;;;;;;10.50;94.60;;;9.32;80.29;99722.75;6151515;23;19999;-82
2023/01/12 05:15:56;;;;;;;;;;;10.50;94.60;;;9.27;80.58;99727.88;6148578;23;19920;-83
2023/01/12 05:18:23;;;;;;;;;;;10.50;94.80;;;9.29;80.55;99720.50;6152397;23;19932;-84
2023/01/12 05:20:50;;;;;;;;;;;10.50;94.80;;;9.29;80.41;99713.34;6152470;23;19999;-83
2023/01/12 05:23:17;;;;;;;;;;;10.50;94.90;;;9.23;80.74;99719.56;6152442;23;19921;-82
2023/01/12 05:25:44;;;;;;;;;;;10.40;95.00;;;9.26;80.75;99708.44;6151990;23;19920;-80
2023/01/12 05:28:13;;;;;;;;;;;10.40;95.00;;;9.26;80.70;99711.09;6151870;23;19920;-78
2023/01/12 05:30:40;;;;;;;;;;;10.40;95.00;;;9.28;80.73;99700.28;6152232;23;19927;-78
2023/01/12 05:33:07;;;;;;;;;;;10.50;95.00;;;9.22;80.61;99703.78;6152300;23;19921;-80
2023/01/12 05:35:33;;;;;;;;;;;10.40;95.00;;;9.23;81.00;99682.31;6152040;23;19920;-81
2023/01/12 05:38:00;;;;;;;;;;;10.40;95.00;;;9.23;80.54;99682.31;6151213;23;19916;-82
2023/01/12 05:40:27;;;;;;;;;;;10.40;94.90;;;9.14;80.93;99665.00;6151852;23;19921;-78
2023/01/12 05:45:43;;;;;;;;;;;10.30;95.00;;;9.13;80.81;99647.44;6151178;23;19999;-85
2023/01/12 05:48:10;;;;;;;;;;;10.30;95.20;;;9.14;80.99;99643.72;6149897;23;19956;-80
2023/01/12 05:50:37;;;;;;;;;;;10.30;95.20;;;9.15;80.68;99633.91;6150669;23;19920;-90
2023/01/12 05:53:07;;;;;;;;;;;10.30;95.20;;;9.14;80.94;99624.28;6152482;23;19924;-90
2023/01/12 05:55:38;;;;;;;;;;;10.30;95.10;;;9.11;80.71;99625.53;6153098;23;19955;-89
2023/01/12 05:58:05;;;;;;;;;;;10.30;95.20;;;9.10;80.86;99605.31;6152328;23;19916;-90
2023/01/12 06:00:32;;;;;;;;;;;10.30;95.20;;;9.10;80.86;99617.78;6151721;23;19921;-90
2023/01/12 06:03:01;;;;;;;;;;;10.30;95.20;;;9.15;80.88;99633.91;6151664;23;19921;-89
2023/01/12 06:05:28;;;;;;;;;;;10.30;95.20;;;9.17;80.94;99621.19;6151980;23;19920;-88
2023/01/12 06:07:55;;;;;;;;;;;10.30;95.20;;;9.22;80.84;99632.78;6152398;23;19917;-90
2023/01/12 06:10:22;;;;;;;;;;;10.40;95.20;;;9.22;80.92;99608.84;6149792;23;19975;-88
2023/01/12 06:15:35;;;;;;;;;;;10.40;94.90;;;9.17;80.79;99600.69;6150703;23;19939;-89
2023/01/12 06:18:03;;;;;;;;;;;10.30;95.30;;;9.12;80.89;99624.50;6152439;23;19920;-89
2023/01/12 06:20:30;;;;;;;;;;;10.30;95.40;;;9.15;81.27;99612.63;6153738;23;19944;-89
2023/01/12 06:23:00;;;;;;;;;;;10.30;95.40;;;9.19;80.88;99611.94;6152519;23;19920;-88
2023/01/12 06:25:28;;;;;;;;;;;10.40;95.30;;;9.21;80.86;99620.50;6153114;23;19921;-90
2023/01/12 06:27:55;;;;;;;;;;;10.40;95.20;;;9.20;80.44;99560.38;6152166;23;19963;-89
2023/01/12 06:30:25;;;;;;;;;;;10.40;94.90;;;9.19;80.47;99616.47;6152160;23;19921;-88
2023/01/12 06:32:52;;;;;;;;;;;10.40;94.80;;;9.18;80.46;99620.97;6152405;23;19956;-88
2023/01/12 06:35:21;;;;;;;;;;;10.40;94.90;;;9.20;80.54;99620.75;6151372;23;20328;-90
2023/01/12 06:37:48;;;;;;;;;;;10.40;94.90;;;9.22;80.41;99608.00;6151509;23;19951;-88
2023/01/12 06:40:15;;;;;;;;;;;10.40;94.90;;;9.20;80.89;99623.41;6155919;23;19921;-86
2023/01/12 06:42:42;;;;;;;;;;;10.40;94.80;;;9.16;80.48;99592.94;6154205;23;20009;-86
2023/01/12 06:45:11;;;;;;;;;;;10.40;94.80;;;9.21;80.49;99590.44;6153878;23;19972;-86
2023/01/12 06:47:44;;;;;;;;;;;10.40;94.90;;;9.26;80.45;99580.75;6154838;23;19921;-88
2023/01/12 06:50:11;;;;;;;;;;;10.40;95.00;;;9.19;80.08;99585.34;6152002;23;19925;-85
2023/01/12 06:52:40;;;;;;;;;;;10.40;94.60;;;9.20;80.36;99599.47;6152709;23;20255;-86
2023/01/12 06:55:08;;;;;;;;;;;10.40;95.00;;;9.22;80.54;99600.03;6151647;23;20298;-84
2023/01/12 06:57:35;;;;;;;;;;;10.40;95.10;;;9.22;80.64;99603.53;6150670;23;19921;-85
2023/01/12 07:00:03;;;;;;;;;;;10.40;95.20;;;9.30;80.53;99607.72;6150253;23;20430;-85
2023/01/12 07:02:30;;;;;;;;;;;10.40;95.00;;;9.37;80.21;99599.63;6150823;23;19921;-85
2023/01/12 07:04:57;;;;;;;;;;;10.50;94.90;;;9.34;79.98;99608.09;6150985;23;19920;-85
2023/01/12 07:07:26;;;;;;;;;;;10.40;94.80;;;9.28;79.98;99601.81;6150545;23;19944;-85
2023/01/12 07:09:54;;;;;;;;;;;10.60;94.80;;;9.28;80.48;99620.44;6152360;23;19927;-85
2023/01/12 07:12:21;;;;;;;;;;;10.40;95.00;;;9.24;80.79;99619.25;6150288;23;19920;-85
2023/01/12 07:14:48;;;;;;;;;;;10.40;95.30;;;9.23;81.03;99605.16;6152123;23;19920;-85
2023/01/12 07:17:15;;;;;;;;;;;10.40;95.60;;;9.16;81.21;99559.19;6151459;23;19920;-85
2023/01/12 07:19:43;;;;;;;;;;;10.30;95.50;;;9.17;81.39;99595.38;6150399;23;19925;-85
2023/01/12 07:22:10;;;;;;;;;;;10.40;95.60;;;9.15;81.45;99607.28;6152101;23;19927;-85
2023/01/12 07:24:37;;;;;;;;;;;10.30;95.70;;;9.15;82.03;99594.81;6152095;23;19923;-85
2023/01/12 07:27:05;;;;;;;;;;;10.30;96.10;;;9.13;82.17;99604.88;6151915;23;19921;-84
2023/01/12 07:29:32;;;;;;;;;;;10.30;96.40;;;9.15;82.46;99589.47;6152040;23;19950;-84
2023/01/12 07:32:00;;;;;;;;;;;10.30;96.60;;;9.18;82.52;99591.72;6150410;23;19927;-85
2023/01/12 07:34:28;;;;;;;;;;;10.30;96.60;;;9.19;82.43;99593.31;6150338;23;20552;-85
2023/01/12 07:36:55;;;;;;;;;;;10.40;96.60;;;9.21;82.47;99604.53;6150284;23;19944;-85
2023/01/12 07:39:22;;;;;;;;;;;10.40;96.60;;;9.24;82.54;99597.97;6152351;23;19973;-85
2023/01/12 07:44:39;;;;;;;;;;;10.40;96.70;;;9.27;82.63;99601.00;6150491;23;19920;-85
2023/01/12 07:47:06;;;;;;;;;;;10.40;96.70;;;9.28;82.76;99588.53;6151612;23;19921;-85
2023/01/12 07:49:33;;;;;;;;;;;10.40;96.80;;;9.31;82.73;99592.56;6151978;23;19927;-84
2023/01/12 07:51:59;;;;;;;;;;;10.40;96.60;;;9.29;82.86;99585.63;6149988;23;20342;-85
2023/01/12 07:54:26;;;;;;;;;;;10.40;96.80;;;9.31;83.14;99593.38;6151721;23;20336;-85
2023/01/12 07:56:53;;;;;;;;;;;10.40;96.90;;;9.32;83.29;99599.50;6151532;23;20476;-84
2023/01/12 07:59:20;;;;;;;;;;;10.50;97.00;;;9.33;83.26;99595.84;6151929;23;20541;-85
2023/01/12 08:01:49;;;;;;;;;;;10.50;97.20;;;9.35;83.32;99605.19;6151858;23;20026;-84
2023/01/12 08:04:16;;;;;;;;;;;10.50;97.00;;;9.35;83.65;99609.72;6151672;23;20003;-84
2023/01/12 08:06:43;;;;;;;;;;;10.50;97.10;;;9.38;83.46;99610.09;6151487;23;20344;-84
2023/01/12 08:09:10;;;;;;;;;;;10.50;97.10;;;9.41;83.38;99598.16;6151928;23;20501;-84
2023/01/12 08:11:37;;;;;;;;;;;10.50;97.00;;;9.41;83.21;99600.81;6150409;23;19944;-85
2023/01/12 08:14:04;;;;;;;;;;;10.90;97.30;;;9.36;83.73;99598.84;6150248;23;19920;-84
2023/01/12 08:16:36;;;;;;;;;;;10.60;97.20;;;9.36;84.12;99611.31;6151517;23;19975;-84
2023/01/12 08:19:09;;;;;;;;;;;10.60;97.30;;;9.38;83.95;99598.63;6151924;23;19927;-84
2023/01/12 08:21:43;;;;;;;;;;;10.60;97.50;;;9.43;84.00;99598.75;6151760;23;19955;-85
2023/01/12 08:24:11;;;;;;;;;;;10.60;97.50;;;9.44;83.94;99587.06;6151633;23;19948;-84
2023/01/12 08:26:39;;;;;;;;;;;10.60;97.50;;;9.48;83.82;99598.91;6151058;23;19920;-84
2023/01/12 08:29:10;;;;;;;;;;;10.60;97.60;;;9.48;83.90;99596.25;6149750;23;19921;-85
2023/01/12 08:31:38;;;;;;;;;;;10.60;97.70;;;9.47;84.09;99594.63;6149867;23;20299;-84
2023/01/12 08:34:07;;;;;;;;;;;10.60;97.90;;;9.44;84.30;99587.88;6151471;23;19920;-84
2023/01/12 08:36:34;;;;;;;;;;;10.60;97.80;;;9.45;84.58;99583.38;6151183;23;20427;-85
2023/01/12 08:39:03;;;;;;;;;;;10.60;97.90;;;9.48;84.49;99588.25;6151675;23;19920;-85
2023/01/12 08:41:33;;;;;;;;;;;10.60;98.10;;;9.49;84.59;99584.53;6151637;23;19920;-84
2023/01/12 08:44:05;;;;;;;;;;;10.60;98.10;;;9.49;84.59;99597.84;6151651;23;19920;-84
2023/01/12 08:46:33;;;;;;;;;;;10.60;98.30;;;9.45;84.76;99594.00;6149819;23;19979;-84
2023/01/12 08:49:07;;;;;;;;;;;10.60;98.30;;;9.39;85.46;99595.72;6151836;23;19920;-84
2023/01/12 08:51:35;;;;;;;;;;;10.60;98.50;;;9.42;85.29;99605.09;6151834;23;19921;-84
2023/01/12 08:54:02;;;;;;;;;;;10.60;98.50;;;9.44;85.33;99598.53;6149790;23;19924;-84
2023/01/12 08:56:29;;;;;;;;;;;10.60;98.40;;;9.45;85.27;99583.38;6151171;23;19999;-85
2023/01/12 08:58:56;;;;;;;;;;;10.60;98.40;;;9.47;85.48;99590.09;6151506;23;19948;-84
2023/01/12 09:01:23;;;;;;;;;;;10.60;98.70;;;9.47;85.47;99597.28;6151522;23;20452;-84
2023/01/12 09:04:02;;;;;;;;;;;10.70;98.70;;;9.51;85.42;99607.22;6149629;23;19921;-85
2023/01/12 09:06:37;;;;;;;;;;;10.60;98.70;;;9.55;85.46;99589.78;6149234;23;19916;-84
2023/01/12 09:09:07;;;;;;;;;;;10.60;98.70;;;9.54;85.46;99605.97;6151485;23;20359;-84
2023/01/12 09:11:34;;;;;;;;;;;10.70;98.80;;;9.59;85.48;99595.47;6149704;23;19927;-83
2023/01/12 09:14:01;;;;;;;;;;;10.70;98.90;;;9.61;85.16;99593.38;6151295;23;20002;-83
2023/01/12 09:16:29;;;;;;;;;;;10.70;98.70;;;9.59;85.21;99603.44;6150971;23;19970;-84
2023/01/12 09:18:56;;;;;;;;;;;10.70;98.70;;;9.58;85.48;99609.00;6151517;23;19973;-84
2023/01/12 09:21:26;;;;;;;;;;;10.70;98.80;;;9.57;85.72;99602.88;6149936;23;20398;-84
2023/01/12 09:23:54;;;;;;;;;;;10.70;99.00;;;9.61;86.06;99608.53;6151515;23;19916;-84
2023/01/12 09:26:22;;;;;;;;;;;10.80;99.10;;;9.58;85.97;99604.50;6151271;23;19924;-84
2023/01/12 09:28:50;;;;;;;;;;;10.70;99.10;;;9.61;86.04;99619.19;6151522;23;19952;-84
2023/01/12 09:31:19;;;;;;;;;;;10.70;99.10;;;9.64;86.13;99619.56;6151418;23;20210;-84
2023/01/12 09:33:47;;;;;;;;;;;10.70;99.10;;;9.62;86.19;99620.84;6151225;23;19923;-84
2023/01/12 09:36:15;;;;;;;;;;;10.70;99.20;;;9.62;86.19;99628.81;6150864;23;19917;-84
2023/01/12 09:38:44;;;;;;;;;;;10.80;99.10;;;9.65;86.08;99625.69;6151308;23;20011;-84
2023/01/12 09:41:17;;;;;;;;;;;10.80;99.20;;;9.66;85.94;99637.94;6152750;23;19920;-84
2023/01/12 09:49:18;;;;;;;;;;;10.80;99.50;;;9.66;86.55;99637.94;6153154;23;19948;-83
2023/01/12 09:51:51;;;;;;;;;;;10.80;99.30;;;9.65;86.57;99642.47;6151540;23;19927;-84
2023/01/12 09:54:18;;;;;;;;;;;10.80;99.50;;;9.67;86.57;99661.72;6153099;23;19916;-84
2023/01/12 09:56:53;;;;;;;;;;;10.80;99.50;;;9.69;86.65;99664.13;6152923;23;19925;-84
2023/01/12 09:59:31;;;;;;;;;;;10.80;99.50;;;9.73;86.69;99652.81;6153721;23;19920;-84
2023/01/12 10:01:58;;;;;;;;;;;10.80;99.60;;;9.76;86.49;99648.88;6153242;23;19948;-84
2023/01/12 10:04:25;;;;;;;;;;;10.90;99.50;;;9.78;86.34;99649.47;6153304;23;20414;-84
2023/01/12 10:06:52;;;;;;;;;;;10.90;99.30;;;9.81;86.21;99657.03;6152409;23;19920;-84
2023/01/12 10:09:20;;;;;;;;;;;11.00;99.20;;;9.82;86.02;99663.97;6152928;23;20395;-84
2023/01/12 10:11:55;;;;;;;;;;;11.00;99.10;;;9.84;85.86;99658.41;6151093;23;20377;-84
2023/01/12 10:14:46;;;;;;;;;;;11.00;99.00;;;9.87;85.72;99665.97;6152679;23;20429;-85
2023/01/12 10:17:31;;;;;;;;;;;11.00;99.10;;;9.82;86.22;99652.50;6152172;23;20324;-85
2023/01/12 10:20:04;;;;;;;;;;;11.00;99.30;;;9.84;86.20;99661.88;6152705;23;20003;-85
2023/01/12 10:22:39;;;;;;;;;;;11.00;99.20;;;9.82;86.27;99663.16;6152679;23;19944;-84
2023/01/12 10:25:15;;;;;;;;;;;11.00;99.10;;;9.84;86.16;99667.22;6150785;23;20007;-85
2023/01/12 10:27:46;;;;;;;;;;;10.90;99.10;;;9.84;86.11;99666.41;6152358;23;20426;-84
2023/01/12 10:30:15;;;;;;;;;;;11.00;98.90;;;9.87;86.23;99676.59;6153158;23;19931;-86
2023/01/12 10:32:42;;;;;;;;;;;11.00;99.30;;;9.88;86.48;99678.22;6151019;23;20012;-84
2023/01/12 10:35:13;;;;;;;;;;;11.00;99.30;;;9.90;86.53;99676.13;6152686;23;19968;-85
2023/01/12 10:37:44;;;;;;;;;;;11.00;99.50;;;9.90;86.81;99668.97;6152669;23;19924;-85
2023/01/12 10:40:22;;;;;;;;;;;11.00;99.60;;;9.94;86.59;99672.78;6150952;23;19922;-85
2023/01/12 10:45:42;;;;;;;;;;;11.10;99.50;;;9.95;86.83;99676.28;6152562;23;20336;-84
2023/01/12 10:48:19;;;;;;;;;;;11.10;99.70;;;9.96;86.77;99678.72;6152084;23;19923;-85
2023/01/12 10:50:57;;;;;;;;;;;11.10;99.60;;;9.96;86.66;99672.59;6152322;23;19920;-85
2023/01/12 10:53:27;;;;;;;;;;;11.10;99.60;;;9.96;86.89;99676.06;6150307;23;19917;-82
2023/01/12 10:55:55;;;;;;;;;;;11.10;99.60;;;9.95;87.06;99686.94;6151734;23;19967;-82
2023/01/12 10:58:27;;;;;;;;;;;11.10;99.60;;;9.99;87.00;99678.25;6152071;23;19924;-82
2023/01/12 11:00:54;;;;;;;;;;;11.20;99.50;;;10.01;86.77;99684.19;6152614;23;20003;-82
2023/01/12 11:03:31;;;;;;;;;;;11.20;99.50;;;10.05;86.87;99681.84;6152532;23;19931;-82
2023/01/12 11:06:14;;;;;;;;;;;11.20;99.90;;;10.00;87.08;99690.56;6151648;23;20343;-82
2023/01/12 11:08:41;;;;;;;;;;;11.20;99.70;;;9.97;86.93;99682.19;6152615;23;19924;-82
2023/01/12 11:11:15;;;;;;;;;;;11.10;99.50;;;9.99;86.98;99691.56;6152351;23;19940;-82
2023/01/12 11:13:44;;;;;;;;;;;11.10;99.70;;;10.01;87.14;99667.41;6152278;23;19943;-82
2023/01/12 11:16:15;;;;;;;;;;;11.10;99.90;;;9.98;87.27;99679.31;6151896;23;19920;-82
2023/01/12 11:18:46;;;;;;;;;;;11.10;99.70;;;9.98;87.09;99678.50;6152183;23;19927;-82
2023/01/12 11:21:17;;;;;;;;;;;11.10;99.80;;;10.01;86.84;99672.72;6152286;23;19946;-82
2023/01/12 11:23:57;;;;;;;;;;;11.10;99.70;;;10.02;86.81;99669.00;6152066;23;19916;-82
2023/01/12 11:26:28;;;;;;;;;;;11.10;99.70;;;10.05;86.96;99673.88;6152167;23;20294;-82
2023/01/12 11:28:59;;;;;;;;;;;11.20;99.70;;;10.09;86.78;99668.91;6152616;23;19923;-82
2023/01/12 11:31:28;;;;;;;;;;;11.20;99.80;;;10.09;86.64;99674.22;6152193;23;20232;-82
2023/01/12 11:33:58;;;;;;;;;;;11.20;99.60;;;10.08;86.56;99673.44;6152302;23;20215;-81
2023/01/12 11:36:27;;;;;;;;;;;11.20;99.60;;;10.07;86.58;99663.81;6151118;23;19917;-81
2023/01/12 11:38:59;;;;;;;;;;;11.20;99.50;;;10.06;86.63;99665.66;6152143;23;20345;-81
2023/01/12 11:41:33;;;;;;;;;;;11.20;99.50;;;10.07;86.54;99659.28;6152375;23;19920;-83
2023/01/12 11:44:07;;;;;;;;;;;11.10;99.50;;;10.06;86.52;99655.00;6151227;23;19916;-81
2023/01/12 11:46:41;;;;;;;;;;;11.20;99.50;;;10.07;86.51;99663.81;6149586;23;19920;-81
2023/01/12 11:49:12;;;;;;;;;;;11.20;99.50;;;10.04;86.63;99659.75;6151889;23;19920;-81
2023/01/12 11:51:40;;;;;;;;;;;11.20;99.60;;;10.06;86.85;99665.66;6152008;23;20310;-81
2023/01/12 11:54:13;;;;;;;;;;;11.20;99.70;;;10.02;87.17;99655.69;6151600;23;19924;-81
2023/01/12 11:56:56;;;;;;;;;;;11.20;99.70;;;10.05;86.83;99641.91;6151198;23;19951;-81
2023/01/12 11:59:29;;;;;;;;;;;11.30;99.70;;;10.04;86.62;99646.41;6151817;23;19944;-81
2023/01/12 12:02:03;;;;;;;;;;;11.10;99.60;;;10.05;86.85;99649.88;6151766;23;19921;-81
2023/01/12 12:04:41;;;;;;;;;;;11.20;99.70;;;10.08;86.74;99646.78;6151374;23;19916;-81
2023/01/12 12:07:17;;;;;;;;;;;11.20;99.70;;;10.07;86.58;99650.50;6151470;23;19927;-81
2023/01/12 12:09:56;;;;;;;;;;;11.20;99.70;;;10.07;86.42;99645.16;6149669;23;19924;-81